createdAt,value
2018-04-14T00:00:53.176Z,21.30
2018-04-14T00:03:19.453Z,18.73
2018-04-14T00:05:45.706Z,16.27
2018-04-14T00:08:11.957Z,15.57
2018-04-14T00:10:38.214Z,15.13
2018-04-14T00:13:05.256Z,14.17
2018-04-14T00:15:31.539Z,14.00
2018-04-14T00:17:57.814Z,14.30
2018-04-14T00:20:24.058Z,9.43
2018-04-14T00:22:51.266Z,8.10
2018-04-14T00:25:17.517Z,7.90
2018-04-14T00:27:43.781Z,7.40
2018-04-14T00:30:10.777Z,7.27
2018-04-14T00:32:43.870Z,6.77
2018-04-14T00:35:10.202Z,8.20
2018-04-14T00:37:36.681Z,8.47
2018-04-14T00:40:03.009Z,7.40
2018-04-14T00:42:29.301Z,7.20
2018-04-14T00:44:55.989Z,7.70
2018-04-14T00:47:22.277Z,5.70
2018-04-14T00:49:48.525Z,6.63
2018-04-14T00:52:15.450Z,5.67
2018-04-14T00:54:41.765Z,8.27
2018-04-14T00:57:08.066Z,5.57
2018-04-14T00:59:34.353Z,7.20
2018-04-14T01:02:00.635Z,6.83
2018-04-14T01:04:26.922Z,8.67
2018-04-14T01:06:53.207Z,8.20
2018-04-14T01:09:19.485Z,11.47
2018-04-14T01:11:45.737Z,10.67
2018-04-14T01:14:12.019Z,11.07
2018-04-14T01:16:38.277Z,10.77
2018-04-14T01:19:05.422Z,9.13
2018-04-14T01:21:32.129Z,7.70
2018-04-14T01:23:58.405Z,7.00
2018-04-14T01:26:24.881Z,10.00
2018-04-14T01:28:51.266Z,7.50
2018-04-14T01:31:17.537Z,7.60
2018-04-14T01:33:45.491Z,6.20
2018-04-14T01:36:11.746Z,5.63
2018-04-14T01:38:38.207Z,5.73
2018-04-14T01:41:04.458Z,5.40
2018-04-14T01:43:31.080Z,5.40
2018-04-14T01:45:57.359Z,5.83
2018-04-14T01:48:24.210Z,5.93
2018-04-14T01:50:50.485Z,6.27
2018-04-14T01:53:16.746Z,6.30
2018-04-14T01:55:43.021Z,8.07
2018-04-14T01:58:09.327Z,7.03
2018-04-14T02:00:35.627Z,10.63
2018-04-14T02:03:01.894Z,5.57
2018-04-14T02:05:28.180Z,6.67
2018-04-14T02:07:54.814Z,4.93
2018-04-14T02:10:22.170Z,4.50
2018-04-14T02:12:48.413Z,4.40
2018-04-14T02:15:14.783Z,4.13
2018-04-14T02:17:41.785Z,4.40
2018-04-14T02:20:08.085Z,5.57
2018-04-14T02:22:34.326Z,4.03
2018-04-14T02:25:01.547Z,4.17
2018-04-14T02:27:28.720Z,3.93
2018-04-14T02:29:54.990Z,3.80
2018-04-14T02:32:21.247Z,3.93
2018-04-14T02:34:47.503Z,4.37
2018-04-14T02:37:14.124Z,14.73
2018-04-14T02:39:40.384Z,9.80
2018-04-14T02:42:06.955Z,5.10
2018-04-14T02:44:33.264Z,4.87
2018-04-14T02:46:59.534Z,4.97
2018-04-14T02:49:25.786Z,5.40
2018-04-14T02:51:52.089Z,4.20
2018-04-14T02:54:18.333Z,4.57
2018-04-14T02:56:45.069Z,4.20
2018-04-14T02:59:11.357Z,4.60
2018-04-14T03:01:37.648Z,6.07
2018-04-14T03:04:03.898Z,5.60
2018-04-14T03:06:30.175Z,5.77
2018-04-14T03:08:56.422Z,5.13
2018-04-14T03:11:22.685Z,6.33
2018-04-14T03:13:49.003Z,6.50
2018-04-14T03:16:15.516Z,6.90
2018-04-14T03:18:41.781Z,6.83
2018-04-14T03:21:08.084Z,5.27
2018-04-14T03:23:34.333Z,4.43
2018-04-14T03:26:00.646Z,5.20
2018-04-14T03:28:26.950Z,7.03
2018-04-14T03:30:53.285Z,5.43
2018-04-14T03:33:20.425Z,5.20
2018-04-14T03:35:46.670Z,5.90
2018-04-14T03:38:12.968Z,5.20
2018-04-14T03:40:39.217Z,5.10
2018-04-14T03:43:05.506Z,4.67
2018-04-14T03:45:33.076Z,4.50
2018-04-14T03:48:00.353Z,4.73
2018-04-14T03:50:27.600Z,4.43
2018-04-14T03:52:55.889Z,4.53
2018-04-14T03:55:23.248Z,5.23
2018-04-14T03:57:50.326Z,4.70
2018-04-14T04:00:16.594Z,4.47
2018-04-14T04:02:42.886Z,4.50
2018-04-14T04:05:09.489Z,4.50
2018-04-14T04:07:36.213Z,5.60
2018-04-14T04:10:03.765Z,5.07
2018-04-14T04:12:31.240Z,4.60
2018-04-14T04:14:58.438Z,5.23
2018-04-14T04:17:25.556Z,5.27
2018-04-14T04:20:04.117Z,5.30
2018-04-14T04:22:42.602Z,4.90
2018-04-14T04:28:19.102Z,4.77
2018-04-14T04:30:46.134Z,4.40
2018-04-14T04:33:12.486Z,5.07
2018-04-14T04:35:38.745Z,5.23
2018-04-14T04:38:05.303Z,4.83
2018-04-14T04:40:31.541Z,5.20
2018-04-14T04:42:58.119Z,4.63
2018-04-14T04:45:24.370Z,4.87
2018-04-14T04:47:50.782Z,4.87
2018-04-14T04:50:17.619Z,6.03
2018-04-14T04:52:43.866Z,5.07
2018-04-14T04:55:11.069Z,5.60
2018-04-14T04:57:37.316Z,4.80
2018-04-14T05:00:04.101Z,5.03
2018-04-14T05:02:30.383Z,5.13
2018-04-14T05:04:56.994Z,5.57
2018-04-14T05:07:23.249Z,4.67
2018-04-14T05:09:49.525Z,5.60
2018-04-14T05:12:17.487Z,5.40
2018-04-14T05:14:43.770Z,5.40
2018-04-14T05:17:10.310Z,5.53
2018-04-14T05:19:37.491Z,5.40
2018-04-14T05:22:04.811Z,6.20
2018-04-14T05:24:31.624Z,6.87
2018-04-14T05:26:57.909Z,6.10
2018-04-14T05:29:24.157Z,5.53
2018-04-14T05:31:50.530Z,7.17
2018-04-14T05:34:16.766Z,5.50
2018-04-14T05:36:43.062Z,5.70
2018-04-14T05:39:09.603Z,5.43
2018-04-14T05:41:36.633Z,10.37
2018-04-14T05:44:02.919Z,10.10
2018-04-14T05:46:29.202Z,10.53
2018-04-14T05:48:57.049Z,11.33
2018-04-14T05:51:23.317Z,26.37
2018-04-14T05:53:49.693Z,12.67
2018-04-14T05:56:16.258Z,9.00
2018-04-14T05:58:43.422Z,8.60
2018-04-14T06:01:09.697Z,9.80
2018-04-14T06:03:35.989Z,7.37
2018-04-14T06:06:02.289Z,6.30
2018-04-14T06:08:28.549Z,6.07
2018-04-14T06:10:54.829Z,6.10
2018-04-14T06:13:21.807Z,7.87
2018-04-14T06:15:48.899Z,5.43
2018-04-14T06:18:15.914Z,5.87
2018-04-14T06:20:42.182Z,5.53
2018-04-14T06:23:08.513Z,6.33
2018-04-14T06:25:35.622Z,6.70
2018-04-14T06:28:01.974Z,6.43
2018-04-14T06:30:28.544Z,7.37
2018-04-14T06:32:55.469Z,8.23
2018-04-14T06:35:21.780Z,6.80
2018-04-14T06:37:48.130Z,6.10
2018-04-14T06:40:14.963Z,6.47
2018-04-14T06:42:42.122Z,8.17
2018-04-14T06:45:08.389Z,7.23
2018-04-14T06:47:36.660Z,8.40
2018-04-14T06:50:03.093Z,9.60
2018-04-14T06:52:30.989Z,11.73
2018-04-14T06:54:57.237Z,12.77
2018-04-14T06:57:23.672Z,15.03
2018-04-14T06:59:50.188Z,16.93
2018-04-14T07:02:16.477Z,17.77
2018-04-14T07:04:43.571Z,16.47
2018-04-14T07:07:11.427Z,16.43
2018-04-14T07:09:38.430Z,18.13
2018-04-14T07:12:05.168Z,15.23
2018-04-14T07:14:31.451Z,16.47
2018-04-14T07:16:58.458Z,16.53
2018-04-14T07:19:25.657Z,17.93
2018-04-14T07:21:52.884Z,26.63
2018-04-14T07:24:20.166Z,16.17
2018-04-14T07:26:47.446Z,15.57
2018-04-14T07:29:14.744Z,13.60
2018-04-14T07:31:41.098Z,14.13
2018-04-14T07:34:08.180Z,14.07
2018-04-14T07:36:34.433Z,12.47
2018-04-14T07:39:00.698Z,11.57
2018-04-14T07:41:27.743Z,11.00
2018-04-14T07:43:55.089Z,11.80
2018-04-14T07:46:21.421Z,12.93
2018-04-14T07:48:48.059Z,11.57
2018-04-14T07:51:15.437Z,16.57
2018-04-14T07:53:41.969Z,12.40
2018-04-14T07:56:09.720Z,11.50
2018-04-14T07:58:37.721Z,14.17
2018-04-14T08:01:05.124Z,12.67
2018-04-14T08:03:31.536Z,13.03
2018-04-14T08:05:58.059Z,13.30
2018-04-14T08:08:24.485Z,14.57
2018-04-14T08:10:51.818Z,13.33
2018-04-14T08:13:18.130Z,50.73
2018-04-14T08:15:44.414Z,203.83
2018-04-14T08:18:11.774Z,18.20
2018-04-14T08:20:38.769Z,14.07
2018-04-14T08:23:05.049Z,12.23
2018-04-14T08:25:32.224Z,13.47
2018-04-14T08:27:58.502Z,12.00
2018-04-14T08:30:24.873Z,13.93
2018-04-14T08:32:51.867Z,12.37
2018-04-14T08:35:18.140Z,11.43
2018-04-14T08:37:45.161Z,11.70
2018-04-14T08:40:11.457Z,12.93
2018-04-14T08:42:37.741Z,14.00
2018-04-14T08:45:04.010Z,19.93
2018-04-14T08:47:30.267Z,25.20
2018-04-14T08:49:57.469Z,13.20
2018-04-14T08:52:24.474Z,12.73
2018-04-14T08:54:50.769Z,12.70
2018-04-14T08:57:17.027Z,13.07
2018-04-14T08:59:43.358Z,12.57
2018-04-14T09:02:09.649Z,14.40
2018-04-14T09:04:37.258Z,13.10
2018-04-14T09:07:03.690Z,14.23
2018-04-14T09:09:32.726Z,14.07
2018-04-14T09:11:59.004Z,14.33
2018-04-14T09:14:25.249Z,12.93
2018-04-14T09:16:51.535Z,13.43
2018-04-14T09:19:17.870Z,14.23
2018-04-14T09:21:44.877Z,15.87
2018-04-14T09:24:11.109Z,14.87
2018-04-14T09:26:37.993Z,15.60
2018-04-14T09:29:04.384Z,17.40
2018-04-14T09:31:30.682Z,15.87
2018-04-14T09:33:57.093Z,18.13
2018-04-14T09:36:24.097Z,16.43
2018-04-14T09:38:50.341Z,17.77
2018-04-14T09:41:16.617Z,18.07
2018-04-14T09:43:43.580Z,17.20
2018-04-14T09:46:09.837Z,17.83
2018-04-14T09:48:36.111Z,18.87
2018-04-14T09:51:02.357Z,23.07
2018-04-14T09:53:29.322Z,21.40
2018-04-14T09:55:55.709Z,21.23
2018-04-14T09:58:21.933Z,21.13
2018-04-14T10:00:54.145Z,20.73
2018-04-14T10:03:23.117Z,19.20
2018-04-14T10:05:50.089Z,20.53
2018-04-14T10:08:17.089Z,18.03
2018-04-14T10:10:43.415Z,18.27
2018-04-14T10:13:10.249Z,18.43
2018-04-14T10:15:36.480Z,16.77
2018-04-14T10:18:03.141Z,17.60
2018-04-14T10:20:30.206Z,19.03
2018-04-14T10:22:57.061Z,17.77
2018-04-14T10:25:23.281Z,19.67
2018-04-14T10:27:50.453Z,19.13
2018-04-14T10:30:16.721Z,20.40
2018-04-14T10:32:43.058Z,21.17
2018-04-14T10:35:09.298Z,20.67
2018-04-14T10:37:36.069Z,22.03
2018-04-14T10:40:02.346Z,20.53
2018-04-14T10:42:29.046Z,21.23
2018-04-14T10:44:55.281Z,23.70
2018-04-14T10:47:21.545Z,21.17
2018-04-14T10:49:47.797Z,19.17
2018-04-14T10:52:14.561Z,22.83
2018-04-14T10:54:40.825Z,23.57
2018-04-14T10:57:07.817Z,19.77
2018-04-14T10:59:34.217Z,20.03
2018-04-14T11:02:01.188Z,30.73
2018-04-14T11:04:27.445Z,21.20
2018-04-14T11:06:53.677Z,24.37
2018-04-14T11:09:22.781Z,24.67
2018-04-14T11:11:49.953Z,64.50
2018-04-14T11:14:16.220Z,24.67
2018-04-14T11:16:42.450Z,19.53
2018-04-14T11:19:09.113Z,16.00
2018-04-14T11:21:36.165Z,15.07
2018-04-14T11:24:02.434Z,14.00
2018-04-14T11:26:28.658Z,15.13
2018-04-14T11:28:54.912Z,10.37
2018-04-14T11:31:21.940Z,15.50
2018-04-14T11:33:48.212Z,17.03
2018-04-14T11:36:14.498Z,14.00
2018-04-14T11:38:41.621Z,17.73
2018-04-14T11:41:07.909Z,15.83
2018-04-14T11:43:34.193Z,16.73
2018-04-14T11:46:00.442Z,13.73
2018-04-14T11:48:26.665Z,14.33
2018-04-14T11:50:53.186Z,17.67
2018-04-14T11:53:20.657Z,15.97
2018-04-14T11:55:47.862Z,14.80
2018-04-14T11:58:14.739Z,16.03
2018-04-14T12:00:42.130Z,14.73
2018-04-14T12:03:08.373Z,18.63
2018-04-14T12:05:34.666Z,21.70
2018-04-14T12:08:00.897Z,15.70
2018-04-14T12:10:27.152Z,63.53
2018-04-14T12:12:53.505Z,25.23
2018-04-14T12:15:20.559Z,26.90
2018-04-14T12:17:47.533Z,25.63
2018-04-14T12:20:13.865Z,34.07
2018-04-14T12:22:40.110Z,26.80
2018-04-14T12:25:06.430Z,22.53
2018-04-14T12:27:32.688Z,17.33
2018-04-14T12:29:59.364Z,22.97
2018-04-14T12:32:25.950Z,23.47
2018-04-14T12:34:52.195Z,25.63
2018-04-14T12:37:18.481Z,24.80
2018-04-14T12:39:45.501Z,26.53
2018-04-14T12:42:11.761Z,24.60
2018-04-14T12:44:39.138Z,25.93
2018-04-14T12:47:05.423Z,26.80
2018-04-14T12:49:31.661Z,27.67
2018-04-14T12:51:57.918Z,26.90
2018-04-14T12:54:24.182Z,25.43
2018-04-14T12:56:51.393Z,26.50
2018-04-14T12:59:18.379Z,23.30
2018-04-14T13:01:44.659Z,30.73
2018-04-14T13:04:10.893Z,25.20
2018-04-14T13:06:37.914Z,20.20
2018-04-14T13:09:04.281Z,25.10
2018-04-14T13:11:31.301Z,24.00
2018-04-14T13:13:57.546Z,22.23
2018-04-14T13:16:23.838Z,24.10
2018-04-14T13:18:50.397Z,30.40
2018-04-14T13:21:16.649Z,34.20
2018-04-14T13:23:43.026Z,32.03
2018-04-14T13:26:09.260Z,29.30
2018-04-14T13:28:35.530Z,31.10
2018-04-14T13:31:01.761Z,31.57
2018-04-14T13:33:28.054Z,29.30
2018-04-14T13:35:54.315Z,26.37
2018-04-14T13:38:20.600Z,27.17
2018-04-14T13:40:46.929Z,28.73
2018-04-14T13:43:13.180Z,31.80
2018-04-14T13:45:39.575Z,28.80
2018-04-14T13:48:05.825Z,31.90
2018-04-14T13:50:32.248Z,26.43
2018-04-14T13:52:59.258Z,24.33
2018-04-14T13:55:25.488Z,24.53
2018-04-14T13:57:51.749Z,26.53
2018-04-14T14:00:18.733Z,23.43
2018-04-14T14:02:45.306Z,20.47
2018-04-14T14:05:11.555Z,23.27
2018-04-14T14:07:37.905Z,25.40
2018-04-14T14:10:04.150Z,30.23
2018-04-14T14:12:30.743Z,27.30
2018-04-14T14:14:56.961Z,30.67
2018-04-14T14:17:23.441Z,31.50
2018-04-14T14:19:51.011Z,34.43
2018-04-14T14:22:18.021Z,28.40
2018-04-14T14:24:44.818Z,28.13
2018-04-14T14:27:11.533Z,28.93
2018-04-14T14:29:37.800Z,27.97
2018-04-14T14:32:04.309Z,27.27
2018-04-14T14:34:30.572Z,28.63
2018-04-14T14:36:56.865Z,41.47
2018-04-14T14:39:23.899Z,45.07
2018-04-14T14:41:50.138Z,44.13
2018-04-14T14:44:16.414Z,40.23
2018-04-14T14:46:42.854Z,48.10
2018-04-14T14:49:09.116Z,47.60
2018-04-14T14:51:35.402Z,50.17
2018-04-14T14:54:01.649Z,55.37
2018-04-14T14:56:27.981Z,52.13
2018-04-14T14:58:54.241Z,51.20
2018-04-14T15:01:20.974Z,51.63
2018-04-14T15:03:47.225Z,52.40
2018-04-14T15:06:14.234Z,53.13
2018-04-14T15:08:45.992Z,52.20
2018-04-14T15:11:12.273Z,50.27
2018-04-14T15:13:38.509Z,49.20
2018-04-14T15:16:04.763Z,52.03
2018-04-14T15:18:31.006Z,47.23
2018-04-14T15:20:57.281Z,49.20
2018-04-14T15:23:23.526Z,54.60
2018-04-14T15:25:49.875Z,51.77
2018-04-14T15:28:16.261Z,53.97
2018-04-14T15:30:42.673Z,50.73
2018-04-14T15:33:08.926Z,55.23
2018-04-14T15:35:35.229Z,53.80
2018-04-14T15:38:01.493Z,74.53
2018-04-14T15:40:31.219Z,74.30
2018-04-14T15:42:57.465Z,55.90
2018-04-14T15:45:24.020Z,49.53
2018-04-14T15:47:50.281Z,48.80
2018-04-14T15:50:16.557Z,48.00
2018-04-14T15:52:42.810Z,48.87
2018-04-14T15:55:09.096Z,50.53
2018-04-14T15:57:35.341Z,47.17
2018-04-14T16:00:01.702Z,48.87
2018-04-14T16:02:28.441Z,62.43
2018-04-14T16:04:55.445Z,50.73
2018-04-14T16:07:21.669Z,46.57
2018-04-14T16:09:47.890Z,57.93
2018-04-14T16:12:14.189Z,47.20
2018-04-14T16:14:41.192Z,45.10
2018-04-14T16:17:07.609Z,44.90
2018-04-14T16:19:33.877Z,49.57
2018-04-14T16:22:00.658Z,47.07
2018-04-14T16:24:27.673Z,48.07
2018-04-14T16:26:56.657Z,48.07
2018-04-14T16:29:22.891Z,45.03
2018-04-14T16:31:49.188Z,50.97
2018-04-14T16:34:15.441Z,59.27
2018-04-14T16:36:41.931Z,80.63
2018-04-14T16:39:08.190Z,65.10
2018-04-14T16:41:34.618Z,51.30
2018-04-14T16:44:01.710Z,45.17
2018-04-14T16:46:29.713Z,44.93
2018-04-14T16:48:55.960Z,49.63
2018-04-14T16:51:22.229Z,46.40
2018-04-14T16:53:48.472Z,47.13
2018-04-14T16:56:14.854Z,45.23
2018-04-14T16:58:41.213Z,43.47
2018-04-14T17:01:07.502Z,41.20
2018-04-14T17:03:33.853Z,45.30
2018-04-14T17:06:00.089Z,44.23
2018-04-14T17:08:26.491Z,45.50
2018-04-14T17:10:52.740Z,42.83
2018-04-14T17:13:19.026Z,47.43
2018-04-14T17:15:45.269Z,46.57
2018-04-14T17:18:11.538Z,47.67
2018-04-14T17:20:37.805Z,45.40
2018-04-14T17:23:04.082Z,44.77
2018-04-14T17:25:30.485Z,46.67
2018-04-14T17:27:57.165Z,41.80
2018-04-14T17:30:23.409Z,82.43
2018-04-14T17:32:49.746Z,53.07
2018-04-14T17:35:15.993Z,45.57
2018-04-14T17:37:42.321Z,43.03
2018-04-14T17:40:08.890Z,40.20
2018-04-14T17:42:35.193Z,43.50
2018-04-14T17:45:01.438Z,41.60
2018-04-14T17:47:27.811Z,50.43
2018-04-14T17:49:54.073Z,56.10
2018-04-14T17:52:21.073Z,77.60
2018-04-14T17:54:47.334Z,70.30
2018-04-14T17:57:15.373Z,46.93
2018-04-14T17:59:41.626Z,112.40
2018-04-14T18:02:07.902Z,87.23
2018-04-14T18:04:34.213Z,47.17
2018-04-14T18:07:00.446Z,44.70
2018-04-14T18:09:26.709Z,46.77
2018-04-14T18:11:53.946Z,44.87
2018-04-14T18:14:20.218Z,42.00
2018-04-14T18:16:46.609Z,40.10
2018-04-14T18:19:12.873Z,42.03
2018-04-14T18:21:39.118Z,41.23
2018-04-14T18:24:05.372Z,41.27
2018-04-14T18:26:32.473Z,40.50
2018-04-14T18:28:58.818Z,41.47
2018-04-14T18:31:25.157Z,40.37
2018-04-14T18:33:51.486Z,39.03
2018-04-14T18:36:17.829Z,38.67
2018-04-14T18:38:44.094Z,39.93
2018-04-14T18:41:11.069Z,39.40
2018-04-14T18:43:37.833Z,38.63
2018-04-14T18:46:04.070Z,41.97
2018-04-14T18:48:30.342Z,39.73
2018-04-14T18:50:56.631Z,39.47
2018-04-14T18:53:37.817Z,43.40
2018-04-14T18:56:04.113Z,42.13
2018-04-14T18:58:30.398Z,39.83
2018-04-14T19:00:56.786Z,41.37
2018-04-14T19:03:23.195Z,43.20
2018-04-14T19:05:50.201Z,43.13
2018-04-14T19:08:16.432Z,207.90
2018-04-14T19:10:42.698Z,58.33
2018-04-14T19:13:08.921Z,46.20
2018-04-14T19:15:35.234Z,47.50
2018-04-14T19:18:01.489Z,45.00
2018-04-14T19:20:28.673Z,45.80
2018-04-14T19:22:54.910Z,47.80
2018-04-14T19:25:21.173Z,44.90
2018-04-14T19:27:47.427Z,44.53
2018-04-14T19:30:13.685Z,46.17
2018-04-14T19:32:39.921Z,50.93
2018-04-14T19:35:06.193Z,47.60
2018-04-14T19:37:32.445Z,45.27
2018-04-14T19:39:59.417Z,48.67
2018-04-14T19:42:25.682Z,49.97
2018-04-14T19:44:51.916Z,48.97
2018-04-14T19:47:18.205Z,48.37
2018-04-14T19:49:44.433Z,44.67
2018-04-14T19:52:11.132Z,45.80
2018-04-14T19:54:37.449Z,46.67
2018-04-14T19:57:03.704Z,54.43
2018-04-14T19:59:29.964Z,176.37
2018-04-14T20:01:56.230Z,88.60
2018-04-14T20:04:22.564Z,50.73
2018-04-14T20:06:48.881Z,52.57
2018-04-14T20:09:15.137Z,53.10
2018-04-14T20:11:41.415Z,51.20
2018-04-14T20:14:07.652Z,52.83
2018-04-14T20:16:33.918Z,53.43
2018-04-14T20:19:00.190Z,53.40
2018-04-14T20:21:26.438Z,53.20
2018-04-14T20:23:52.766Z,57.23
2018-04-14T20:26:19.029Z,55.13
2018-04-14T20:28:45.994Z,58.97
2018-04-14T20:31:12.342Z,55.37
2018-04-14T20:33:38.605Z,54.37
2018-04-14T20:36:04.862Z,58.00
2018-04-14T20:38:31.125Z,59.13
2018-04-14T20:40:57.378Z,59.33
2018-04-14T20:43:23.641Z,59.93
2018-04-14T20:45:50.301Z,58.90
2018-04-14T20:48:16.557Z,60.83
2018-04-14T20:50:42.793Z,57.70
2018-04-14T20:53:09.054Z,58.00
2018-04-14T20:55:35.309Z,56.27
2018-04-14T20:58:02.358Z,55.70
2018-04-14T21:00:28.606Z,58.60
2018-04-14T21:02:54.906Z,57.90
2018-04-14T21:05:21.138Z,59.00
2018-04-14T21:07:47.402Z,56.27
2018-04-14T21:10:14.373Z,60.47
2018-04-14T21:12:41.461Z,58.93
2018-04-14T21:15:07.705Z,68.33
2018-04-14T21:17:33.965Z,61.10
2018-04-14T21:20:00.957Z,64.83
2018-04-14T21:22:27.434Z,67.27
2018-04-14T21:24:53.670Z,61.13
2018-04-14T21:27:19.918Z,64.07
2018-04-14T21:29:46.201Z,61.80
2018-04-14T21:32:14.418Z,64.03
2018-04-14T21:34:42.411Z,62.50
2018-04-14T21:37:14.237Z,64.70
2018-04-14T21:39:42.319Z,68.47
2018-04-14T21:42:09.331Z,65.40
2018-04-14T21:44:37.839Z,61.40
2018-04-14T21:47:04.949Z,60.17
2018-04-14T21:49:31.357Z,67.63
2018-04-14T21:51:57.621Z,63.43
2018-04-14T21:54:24.125Z,64.40
2018-04-14T21:56:50.358Z,62.73
2018-04-14T21:59:16.650Z,66.20
2018-04-14T22:01:44.005Z,69.47
2018-04-14T22:04:10.471Z,67.03
2018-04-14T22:06:36.785Z,64.57
2018-04-14T22:09:03.834Z,67.73
2018-04-14T22:11:32.414Z,73.03
2018-04-14T22:13:58.841Z,70.63
2018-04-14T22:16:26.364Z,69.43
2018-04-14T22:18:53.957Z,67.57
2018-04-14T22:21:20.190Z,79.53
2018-04-14T22:23:46.500Z,77.27
2018-04-14T22:26:12.790Z,71.20
2018-04-14T22:28:39.041Z,71.30
2018-04-14T22:31:08.385Z,71.20
2018-04-14T22:33:34.989Z,70.67
2018-04-14T22:36:01.527Z,63.83
2018-04-14T22:38:28.261Z,53.67
2018-04-14T22:40:54.887Z,50.07
2018-04-14T22:43:21.157Z,44.63
2018-04-14T22:45:47.423Z,37.00
2018-04-14T22:48:14.410Z,32.40
2018-04-14T22:50:41.060Z,30.33
2018-04-14T22:53:07.313Z,29.00
2018-04-14T22:55:34.588Z,30.43
2018-04-14T22:58:01.653Z,30.20
2018-04-14T23:00:29.585Z,29.23
2018-04-14T23:02:56.931Z,31.93
2018-04-14T23:05:23.262Z,32.57
2018-04-14T23:07:49.502Z,35.67
2018-04-14T23:10:15.758Z,36.80
2018-04-14T23:12:42.010Z,37.30
2018-04-14T23:15:08.996Z,38.20
2018-04-14T23:17:35.257Z,34.37
2018-04-14T23:20:01.505Z,30.97
2018-04-14T23:22:27.759Z,31.17
2018-04-14T23:24:54.844Z,27.83
2018-04-14T23:27:21.253Z,28.07
2018-04-14T23:29:47.565Z,25.83
2018-04-14T23:32:13.813Z,22.97
2018-04-14T23:34:40.074Z,19.50
2018-04-14T23:37:06.325Z,20.00
2018-04-14T23:39:32.582Z,20.97
2018-04-14T23:41:59.569Z,16.27
2018-04-14T23:44:25.797Z,16.07
2018-04-14T23:46:52.058Z,13.10
2018-04-14T23:49:18.314Z,11.67
2018-04-14T23:51:44.561Z,11.80
2018-04-14T23:54:11.541Z,10.50
2018-04-14T23:56:37.813Z,8.97
2018-04-14T23:59:04.100Z,9.77
